Abercrombie, North Dakota
Current Conditions -  °F | °C
As of 3:55 AM on Sunday 21 Dec 2014 (Local Time) from KBWP Reporting Station
Overcast Overcast  
Wind Chill: 23°   Ceiling: 1100
Heat Index: 32°   Visibility: 4mi
Dew Point: 28°   Wind: 12mph
Humidity: 87%   Direction: 170°S
Pressure: 29.84"   Gusts: NA
Location:  46.45°N, 96.73°W
Report Text: KBWP 210955Z AUTO 17010KT 4SM OVC011 00/M02 A2984 RMK AO1
Loading
Personal Weather Stations






























Interactive Weather Map New forecast layout! Learn more

10-Day Weather Forecast

Advertisements
Track Severe Weather on mobile